createdAt,value
2018-11-25T00:02:39.328Z,8.43
2018-11-25T00:06:42.638Z,10.37
2018-11-25T00:10:44.114Z,8.00
2018-11-25T00:14:46.479Z,6.90
2018-11-25T00:18:48.823Z,6.87
2018-11-25T00:22:51.209Z,7.07
2018-11-25T00:26:53.500Z,9.17
2018-11-25T00:30:55.825Z,13.63
2018-11-25T00:34:59.013Z,17.00
2018-11-25T00:39:01.347Z,11.33
2018-11-25T00:43:03.732Z,11.43
2018-11-25T00:47:06.108Z,9.93
2018-11-25T00:51:08.447Z,11.03
2018-11-25T00:55:13.016Z,9.30
2018-11-25T00:59:15.496Z,10.73
2018-11-25T01:03:18.752Z,9.27
2018-11-25T01:07:21.171Z,11.03
2018-11-25T01:11:23.509Z,10.60
2018-11-25T01:15:25.843Z,10.33
2018-11-25T01:19:28.179Z,10.10
2018-11-25T01:23:30.582Z,9.53
2018-11-25T01:27:33.047Z,6.00
2018-11-25T01:31:35.405Z,4.63
2018-11-25T01:35:37.782Z,4.63
2018-11-25T01:39:40.132Z,3.70
2018-11-25T01:43:42.464Z,2.43
2018-11-25T01:47:44.867Z,2.63
2018-11-25T01:51:47.209Z,2.30
2018-11-25T01:55:49.568Z,2.40
2018-11-25T01:59:51.880Z,2.90
2018-11-25T02:03:54.253Z,3.33
2018-11-25T02:07:56.567Z,3.90
2018-11-25T02:11:58.966Z,4.03
2018-11-25T02:16:01.382Z,4.27
2018-11-25T02:20:11.047Z,4.57
2018-11-25T02:24:13.386Z,5.27
2018-11-25T02:28:15.777Z,4.60
2018-11-25T02:32:18.108Z,6.10
2018-11-25T02:36:20.422Z,6.33
2018-11-25T02:40:22.803Z,7.47
2018-11-25T02:44:25.196Z,9.97
2018-11-25T02:48:27.566Z,11.80
2018-11-25T02:52:29.898Z,13.23
2018-11-25T02:56:32.230Z,15.87
2018-11-25T03:00:34.613Z,17.83
2018-11-25T03:04:36.952Z,22.00
2018-11-25T03:08:39.375Z,27.50
2018-11-25T03:12:41.767Z,24.40
2018-11-25T03:16:44.804Z,26.40
2018-11-25T03:20:47.131Z,24.90
2018-11-25T03:24:56.133Z,25.00
2018-11-25T03:28:58.466Z,27.33
2018-11-25T03:33:00.825Z,29.60
2018-11-25T03:37:03.232Z,25.27
2018-11-25T03:41:05.600Z,27.77
2018-11-25T03:45:10.393Z,25.53
2018-11-25T03:49:12.798Z,28.27
2018-11-25T03:53:15.141Z,26.30
2018-11-25T03:57:17.436Z,23.93
2018-11-25T04:01:19.802Z,25.63
2018-11-25T04:05:22.140Z,27.03
2018-11-25T04:09:24.467Z,29.70
2018-11-25T04:13:26.788Z,22.00
2018-11-25T04:17:29.216Z,26.33
2018-11-25T04:21:31.558Z,33.03
2018-11-25T04:25:34.611Z,25.83
2018-11-25T04:29:36.993Z,24.60
2018-11-25T04:33:39.368Z,22.90
2018-11-25T04:37:41.747Z,25.27
2018-11-25T04:41:44.107Z,27.80
2018-11-25T04:45:46.442Z,26.83
2018-11-25T04:49:48.774Z,25.50
2018-11-25T04:53:51.081Z,24.17
2018-11-25T04:57:53.567Z,24.87
2018-11-25T05:01:55.896Z,26.00
2018-11-25T05:05:58.262Z,23.20
2018-11-25T05:10:00.587Z,24.70
2018-11-25T05:14:03.146Z,23.57
2018-11-25T05:18:05.477Z,27.60
2018-11-25T05:22:07.822Z,21.57
2018-11-25T05:26:10.211Z,19.60
2018-11-25T05:30:14.573Z,22.77
2018-11-25T05:34:16.918Z,18.92
2018-11-25T05:38:19.256Z,17.40
2018-11-25T05:42:21.646Z,15.57
2018-11-25T05:46:23.996Z,17.13
2018-11-25T05:50:26.405Z,16.23
2018-11-25T05:54:28.754Z,16.63
2018-11-25T05:58:31.167Z,19.70
2018-11-25T06:02:33.544Z,19.07
2018-11-25T06:06:35.959Z,20.53
2018-11-25T06:10:38.331Z,17.20
2018-11-25T06:14:40.662Z,17.83
2018-11-25T06:18:43.041Z,16.93
2018-11-25T06:22:45.703Z,23.20
2018-11-25T06:26:48.055Z,20.57
2018-11-25T06:30:50.611Z,19.93
2018-11-25T06:34:53.036Z,18.50
2018-11-25T06:38:55.387Z,17.90
2018-11-25T06:42:57.765Z,16.63
2018-11-25T06:47:00.346Z,17.40
2018-11-25T06:51:02.709Z,16.93
2018-11-25T06:55:05.910Z,18.40
2018-11-25T06:59:08.571Z,17.00
2018-11-25T07:03:10.921Z,17.07
2018-11-25T07:07:13.609Z,16.50
2018-11-25T07:11:16.109Z,17.00
2018-11-25T07:15:18.656Z,18.30
2018-11-25T07:19:21.018Z,16.80
2018-11-25T07:23:23.394Z,16.57
2018-11-25T07:27:26.116Z,15.07
2018-11-25T07:31:28.862Z,14.13
2018-11-25T07:35:31.287Z,14.90
2018-11-25T07:39:33.977Z,17.40
2018-11-25T07:43:36.386Z,17.23
2018-11-25T07:47:38.794Z,15.77
2018-11-25T07:51:41.230Z,16.90
2018-11-25T07:55:43.709Z,16.23
2018-11-25T07:59:46.076Z,14.80
2018-11-25T08:03:48.402Z,16.43
2018-11-25T08:07:50.865Z,16.63
2018-11-25T08:11:53.339Z,20.17
2018-11-25T08:15:55.821Z,21.63
2018-11-25T08:19:58.246Z,20.03
2018-11-25T08:24:00.661Z,19.23
2018-11-25T08:28:03.128Z,18.33
2018-11-25T08:32:05.659Z,15.57
2018-11-25T08:36:08.005Z,13.87
2018-11-25T08:40:14.438Z,14.47
2018-11-25T08:44:16.820Z,14.90
2018-11-25T08:48:19.220Z,16.23
2018-11-25T08:52:21.591Z,19.47
2018-11-25T08:56:24.014Z,17.33
2018-11-25T09:00:27.449Z,14.10
2018-11-25T09:04:28.918Z,20.57
2018-11-25T09:08:31.344Z,22.47
2018-11-25T09:12:33.751Z,19.67
2018-11-25T09:16:36.185Z,16.77
2018-11-25T09:20:38.645Z,8.63
2018-11-25T09:24:41.017Z,10.07
2018-11-25T09:28:43.448Z,11.40
2018-11-25T09:32:45.829Z,10.00
2018-11-25T09:36:48.229Z,12.07
2018-11-25T09:40:50.570Z,12.33
2018-11-25T09:44:52.963Z,11.97
2018-11-25T09:48:55.364Z,12.03
2018-11-25T09:52:57.955Z,12.10
2018-11-25T09:57:00.320Z,12.47
2018-11-25T10:01:02.689Z,14.03
2018-11-25T10:05:05.964Z,16.33
2018-11-25T10:09:08.485Z,17.27
2018-11-25T10:13:10.873Z,18.33
2018-11-25T10:17:13.205Z,21.13
2018-11-25T10:21:15.643Z,18.03
2018-11-25T10:25:18.069Z,25.50
2018-11-25T10:29:20.407Z,31.90
2018-11-25T10:33:22.800Z,30.20
2018-11-25T10:37:25.213Z,32.47
2018-11-25T10:41:27.569Z,36.23
2018-11-25T10:45:29.952Z,47.33
2018-11-25T10:49:32.340Z,48.83
2018-11-25T10:53:34.734Z,44.90
2018-11-25T10:57:37.218Z,43.40
2018-11-25T11:01:50.877Z,40.70
2018-11-25T11:05:53.438Z,38.03
2018-11-25T11:09:55.757Z,49.17
2018-11-25T11:13:58.156Z,47.23
2018-11-25T11:18:00.580Z,80.17
2018-11-25T11:22:03.743Z,70.43
2018-11-25T11:26:10.633Z,56.03
2018-11-25T11:30:13.074Z,70.57
2018-11-25T11:34:15.469Z,82.33
2018-11-25T11:38:17.819Z,61.23
2018-11-25T11:42:20.186Z,73.47
2018-11-25T11:46:23.335Z,59.50
2018-11-25T11:50:25.703Z,55.70
2018-11-25T11:54:28.118Z,42.47
2018-11-25T11:58:30.483Z,54.60
2018-11-25T12:02:32.857Z,48.53
2018-11-25T12:06:35.363Z,54.83
2018-11-25T12:10:37.781Z,43.57
2018-11-25T12:14:40.243Z,47.07
2018-11-25T12:18:42.623Z,46.60
2018-11-25T12:22:45.448Z,37.83
2018-11-25T12:26:48.024Z,38.53
2018-11-25T12:30:50.432Z,35.43
2018-11-25T12:34:52.781Z,39.73
2018-11-25T12:38:55.170Z,32.50
2018-11-25T12:42:59.035Z,27.80
2018-11-25T12:47:01.953Z,23.83
2018-11-25T12:51:04.667Z,29.90
2018-11-25T12:55:10.293Z,27.33
2018-11-25T12:59:12.702Z,27.93
2018-11-25T13:03:15.026Z,23.90
2018-11-25T13:07:17.469Z,27.80
2018-11-25T13:11:19.843Z,26.37
2018-11-25T13:15:22.205Z,26.67
2018-11-25T13:19:25.509Z,24.30
2018-11-25T13:23:27.927Z,26.37
2018-11-25T13:27:30.306Z,24.43
2018-11-25T13:31:32.822Z,29.17
2018-11-25T13:35:37.760Z,23.33
2018-11-25T13:39:40.428Z,24.67
2018-11-25T13:43:42.926Z,25.27
2018-11-25T13:47:45.367Z,24.70
2018-11-25T13:51:47.887Z,23.90
2018-11-25T13:55:50.258Z,23.87
2018-11-25T13:59:52.568Z,26.03
2018-11-25T14:03:56.351Z,26.47
2018-11-25T14:07:58.752Z,25.97
2018-11-25T14:12:01.839Z,25.23
2018-11-25T14:16:05.795Z,27.17
2018-11-25T14:20:09.186Z,27.47
2018-11-25T14:24:11.603Z,26.67
2018-11-25T14:28:14.894Z,28.13
2018-11-25T14:32:18.292Z,33.13
2018-11-25T14:36:20.740Z,27.83
2018-11-25T14:40:23.120Z,24.00
2018-11-25T14:44:25.440Z,29.13
2018-11-25T14:48:27.957Z,26.83
2018-11-25T14:52:30.441Z,25.70
2018-11-25T14:56:33.011Z,24.47
2018-11-25T15:00:36.433Z,24.07
2018-11-25T15:04:38.875Z,23.40
2018-11-25T15:08:41.303Z,22.97
2018-11-25T15:12:43.656Z,24.07
2018-11-25T15:16:46.048Z,25.60
2018-11-25T15:20:48.447Z,22.33
2018-11-25T15:24:50.821Z,23.77
2018-11-25T15:28:53.218Z,21.40
2018-11-25T15:32:57.527Z,28.40
2018-11-25T15:36:59.966Z,23.57
2018-11-25T15:41:02.547Z,22.83
2018-11-25T15:45:06.165Z,27.07
2018-11-25T15:49:08.600Z,25.87
2018-11-25T15:53:11.244Z,24.00
2018-11-25T15:57:13.642Z,25.17
2018-11-25T16:01:16.046Z,23.03
2018-11-25T16:05:26.741Z,25.20
2018-11-25T16:09:29.959Z,26.37
2018-11-25T16:13:32.376Z,33.03
2018-11-25T16:17:36.032Z,27.77
2018-11-25T16:21:38.395Z,29.47
2018-11-25T16:25:49.518Z,25.70
2018-11-25T16:29:51.937Z,24.00
2018-11-25T16:33:54.338Z,27.77
2018-11-25T16:37:56.699Z,25.10
2018-11-25T16:41:59.146Z,28.07
2018-11-25T16:46:01.549Z,29.00
2018-11-25T16:50:06.121Z,32.28
2018-11-25T16:54:08.888Z,29.37
2018-11-25T16:58:12.304Z,23.83
2018-11-25T17:02:14.787Z,25.97
2018-11-25T17:06:17.122Z,25.47
2018-11-25T17:10:19.525Z,26.87
2018-11-25T17:14:21.942Z,24.10
2018-11-25T17:18:24.836Z,29.53
2018-11-25T17:22:27.280Z,26.50
2018-11-25T17:26:29.761Z,31.07
2018-11-25T17:30:32.249Z,33.23
2018-11-25T17:34:34.674Z,35.23
2018-11-25T17:38:37.219Z,34.23
2018-11-25T17:42:39.741Z,42.83
2018-11-25T17:46:42.248Z,37.40
2018-11-25T17:50:44.581Z,41.07
2018-11-25T17:54:47.513Z,40.10
2018-11-25T17:58:50.077Z,39.00
2018-11-25T18:02:52.482Z,38.30
2018-11-25T18:06:56.762Z,35.67
2018-11-25T18:10:59.685Z,42.13
2018-11-25T18:15:02.783Z,39.03
2018-11-25T18:19:20.049Z,40.50
2018-11-25T18:23:22.444Z,41.17
2018-11-25T18:27:24.850Z,45.63
2018-11-25T18:31:27.206Z,43.20
2018-11-25T18:35:29.647Z,39.83
2018-11-25T18:39:32.107Z,40.03
2018-11-25T18:43:34.478Z,41.70
2018-11-25T18:47:36.846Z,41.07
2018-11-25T18:51:39.293Z,36.93
2018-11-25T18:55:40.513Z,36.67
2018-11-25T18:59:43.114Z,38.03
2018-11-25T19:03:45.521Z,36.67
2018-11-25T19:07:48.006Z,38.63
2018-11-25T19:11:50.399Z,40.73
2018-11-25T19:15:52.871Z,36.63
2018-11-25T19:19:55.721Z,36.80
2018-11-25T19:23:58.238Z,38.40
2018-11-25T19:28:00.900Z,39.47
2018-11-25T19:32:03.346Z,32.77
2018-11-25T19:36:06.231Z,36.20
2018-11-25T19:40:12.044Z,34.30
2018-11-25T19:44:14.542Z,35.20
2018-11-25T19:48:16.893Z,34.50
2018-11-25T19:52:19.236Z,34.37
2018-11-25T19:56:21.628Z,35.43
2018-11-25T20:00:25.491Z,33.63
2018-11-25T20:04:27.929Z,42.20
2018-11-25T20:08:30.296Z,37.87
2018-11-25T20:12:38.322Z,36.10
2018-11-25T20:16:48.089Z,35.83
2018-11-25T20:20:56.209Z,41.50
2018-11-25T20:24:58.636Z,34.40
2018-11-25T20:29:01.104Z,35.03
2018-11-25T20:33:09.249Z,34.00
2018-11-25T20:37:11.771Z,36.13
2018-11-25T20:41:14.097Z,34.57
2018-11-25T20:45:23.410Z,38.20
2018-11-25T20:49:25.893Z,35.13
2018-11-25T20:53:34.060Z,38.17
2018-11-25T20:57:36.420Z,35.37
2018-11-25T21:01:38.793Z,37.73
2018-11-25T21:05:42.283Z,37.57
2018-11-25T21:09:44.635Z,37.37
2018-11-25T21:13:46.985Z,36.93
2018-11-25T21:17:49.367Z,39.20
2018-11-25T21:21:51.738Z,41.73
2018-11-25T21:25:54.333Z,42.47
2018-11-25T21:29:56.719Z,37.83
2018-11-25T21:33:59.163Z,41.87
2018-11-25T21:38:01.558Z,38.60
2018-11-25T21:42:04.371Z,38.60
2018-11-25T21:46:06.952Z,44.17
2018-11-25T21:50:13.368Z,41.57
2018-11-25T21:54:15.770Z,42.33
2018-11-25T21:58:20.957Z,39.23
2018-11-25T22:02:23.368Z,42.10
2018-11-25T22:06:26.622Z,44.73
2018-11-25T22:10:29.400Z,40.70
2018-11-25T22:14:31.726Z,43.17
2018-11-25T22:18:34.744Z,42.13
2018-11-25T22:22:37.212Z,39.93
2018-11-25T22:26:39.611Z,42.80
2018-11-25T22:30:42.138Z,42.97
2018-11-25T22:34:44.499Z,38.53
2018-11-25T22:38:46.966Z,44.90
2018-11-25T22:42:49.946Z,42.50
2018-11-25T22:46:52.324Z,44.23
2018-11-25T22:50:54.683Z,43.10
2018-11-25T22:54:57.096Z,42.97
2018-11-25T22:58:59.435Z,39.80
2018-11-25T23:03:01.888Z,42.37
2018-11-25T23:07:04.473Z,40.63
2018-11-25T23:11:06.912Z,40.63
2018-11-25T23:15:09.274Z,39.00
2018-11-25T23:19:11.616Z,38.67
2018-11-25T23:23:13.999Z,38.77
2018-11-25T23:27:16.318Z,43.97
2018-11-25T23:31:18.689Z,41.27
2018-11-25T23:35:23.547Z,37.63
2018-11-25T23:39:25.960Z,38.53
2018-11-25T23:43:28.374Z,41.00
2018-11-25T23:47:30.743Z,37.70
2018-11-25T23:51:33.128Z,42.57
2018-11-25T23:55:35.672Z,46.10
2018-11-25T23:59:38.138Z,41.10
